createdAt,value
2018-12-09T00:01:04.482Z,6.60
2018-12-09T00:03:33.182Z,6.60
2018-12-09T00:06:01.893Z,6.60
2018-12-09T00:08:30.595Z,6.60
2018-12-09T00:10:59.255Z,6.50
2018-12-09T00:13:28.313Z,6.50
2018-12-09T00:15:56.971Z,6.50
2018-12-09T00:18:25.647Z,6.50
2018-12-09T00:20:54.306Z,6.50
2018-12-09T00:23:22.975Z,6.50
2018-12-09T00:25:51.682Z,6.50
2018-12-09T00:28:20.368Z,6.50
2018-12-09T00:30:49.035Z,6.50
2018-12-09T00:33:17.790Z,6.50
2018-12-09T00:35:46.441Z,6.50
2018-12-09T00:38:15.137Z,6.50
2018-12-09T00:40:43.825Z,6.50
2018-12-09T00:43:12.709Z,6.50
2018-12-09T00:45:41.414Z,6.50
2018-12-09T00:48:10.105Z,6.50
2018-12-09T00:50:38.886Z,6.50
2018-12-09T00:53:07.635Z,6.50
2018-12-09T00:55:36.333Z,6.50
2018-12-09T00:58:05.066Z,6.50
2018-12-09T01:00:33.715Z,6.50
2018-12-09T01:03:02.417Z,6.60
2018-12-09T01:05:31.178Z,6.60
2018-12-09T01:07:59.867Z,6.60
2018-12-09T01:10:28.544Z,6.60
2018-12-09T01:12:57.320Z,6.60
2018-12-09T01:15:26.132Z,6.70
2018-12-09T01:17:54.845Z,6.70
2018-12-09T01:20:23.538Z,6.70
2018-12-09T01:22:52.225Z,6.80
2018-12-09T01:25:21.155Z,6.80
2018-12-09T01:27:49.888Z,6.80
2018-12-09T01:30:18.561Z,6.80
2018-12-09T01:32:47.329Z,6.80
2018-12-09T01:35:16.034Z,6.80
2018-12-09T01:37:44.695Z,6.80
2018-12-09T01:40:13.357Z,6.80
2018-12-09T01:42:42.060Z,6.80
2018-12-09T01:45:10.723Z,6.80
2018-12-09T01:47:39.877Z,6.80
2018-12-09T01:50:08.598Z,6.80
2018-12-09T01:52:37.289Z,6.80
2018-12-09T01:55:06.002Z,6.80
2018-12-09T01:57:34.748Z,6.80
2018-12-09T02:00:03.647Z,6.80
2018-12-09T02:02:32.307Z,6.80
2018-12-09T02:05:01.006Z,6.90
2018-12-09T02:07:29.707Z,6.90
2018-12-09T02:09:58.397Z,6.90
2018-12-09T02:12:27.082Z,6.90
2018-12-09T02:14:55.847Z,6.90
2018-12-09T02:17:24.580Z,6.90
2018-12-09T02:19:54.028Z,7.00
2018-12-09T02:22:22.724Z,7.00
2018-12-09T02:24:51.422Z,7.00
2018-12-09T02:27:20.323Z,7.00
2018-12-09T02:29:48.976Z,7.00
2018-12-09T02:32:17.692Z,7.10
2018-12-09T02:34:50.718Z,7.10
2018-12-09T02:37:19.383Z,7.10
2018-12-09T02:39:48.156Z,7.20
2018-12-09T02:42:16.848Z,7.20
2018-12-09T02:44:45.882Z,7.20
2018-12-09T02:47:14.781Z,7.20
2018-12-09T02:49:43.489Z,7.30
2018-12-09T02:52:12.700Z,7.30
2018-12-09T02:54:41.523Z,7.30
2018-12-09T02:57:10.220Z,7.30
2018-12-09T02:59:38.908Z,7.30
2018-12-09T03:02:07.834Z,7.40
2018-12-09T03:04:36.479Z,7.40
2018-12-09T03:07:05.176Z,7.50
2018-12-09T03:09:34.097Z,7.50
2018-12-09T03:12:02.763Z,7.50
2018-12-09T03:14:31.472Z,7.60
2018-12-09T03:17:00.163Z,7.60
2018-12-09T03:19:29.081Z,7.60
2018-12-09T03:21:57.762Z,7.60
2018-12-09T03:24:26.424Z,7.70
2018-12-09T03:26:55.468Z,7.70
2018-12-09T03:29:24.221Z,7.70
2018-12-09T03:31:52.888Z,7.70
2018-12-09T03:34:21.610Z,7.70
2018-12-09T03:36:50.286Z,7.80
2018-12-09T03:39:18.979Z,7.70
2018-12-09T03:41:47.684Z,7.70
2018-12-09T03:44:16.377Z,7.70
2018-12-09T03:46:45.096Z,7.70
2018-12-09T03:49:13.796Z,7.70
2018-12-09T03:51:42.447Z,7.60
2018-12-09T03:54:11.127Z,7.50
2018-12-09T03:56:49.608Z,7.50
2018-12-09T03:59:18.301Z,7.50
2018-12-09T04:01:47.016Z,7.50
2018-12-09T04:04:15.685Z,7.40
2018-12-09T04:06:45.201Z,7.40
2018-12-09T04:09:14.353Z,7.40
2018-12-09T04:11:43.271Z,7.40
2018-12-09T04:14:11.935Z,7.40
2018-12-09T04:16:41.051Z,7.40
2018-12-09T04:19:09.991Z,7.40
2018-12-09T04:21:38.884Z,7.40
2018-12-09T04:24:07.575Z,7.50
2018-12-09T04:26:36.297Z,7.50
2018-12-09T04:29:04.967Z,7.60
2018-12-09T04:31:34.239Z,7.60
2018-12-09T04:34:03.201Z,7.70
2018-12-09T04:36:31.869Z,7.70
2018-12-09T04:39:00.584Z,7.70
2018-12-09T04:41:29.283Z,7.80
2018-12-09T04:43:57.971Z,7.80
2018-12-09T04:46:26.633Z,7.80
2018-12-09T04:48:55.327Z,7.90
2018-12-09T04:51:25.593Z,7.90
2018-12-09T04:53:54.863Z,7.90
2018-12-09T04:56:23.521Z,7.90
2018-12-09T05:01:59.133Z,8.00
2018-12-09T05:04:27.889Z,8.00
2018-12-09T05:06:56.547Z,8.00
2018-12-09T05:09:25.942Z,8.00
2018-12-09T05:11:54.645Z,8.00
2018-12-09T05:14:23.567Z,8.00
2018-12-09T05:16:52.248Z,8.00
2018-12-09T05:19:20.993Z,8.00
2018-12-09T05:21:49.703Z,8.00
2018-12-09T05:24:18.438Z,8.00
2018-12-09T05:26:47.117Z,8.10
2018-12-09T05:29:15.970Z,8.10
2018-12-09T05:31:44.666Z,8.20
2018-12-09T05:34:14.028Z,8.20
2018-12-09T05:36:42.745Z,8.20
2018-12-09T05:39:11.679Z,8.20
2018-12-09T05:41:40.383Z,8.10
2018-12-09T05:44:09.201Z,8.10
2018-12-09T05:46:38.120Z,8.10
2018-12-09T05:49:06.795Z,8.10
2018-12-09T05:51:35.493Z,8.10
2018-12-09T05:54:04.156Z,8.00
2018-12-09T05:56:32.902Z,8.00
2018-12-09T05:59:01.609Z,8.00
2018-12-09T06:01:30.320Z,8.00
2018-12-09T06:03:58.998Z,7.90
2018-12-09T06:06:27.735Z,7.90
2018-12-09T06:08:56.984Z,7.90
2018-12-09T06:11:25.714Z,7.90
2018-12-09T06:13:54.383Z,8.00
2018-12-09T06:16:23.056Z,8.00
2018-12-09T06:18:51.827Z,8.00
2018-12-09T06:21:21.031Z,8.10
2018-12-09T06:23:49.810Z,8.10
2018-12-09T06:26:18.501Z,8.10
2018-12-09T06:28:47.277Z,8.10
2018-12-09T06:31:16.228Z,8.10
2018-12-09T06:33:44.902Z,8.00
2018-12-09T06:36:13.866Z,7.90
2018-12-09T06:38:42.537Z,7.80
2018-12-09T06:41:11.303Z,7.70
2018-12-09T06:43:40.005Z,7.70
2018-12-09T06:46:08.685Z,7.70
2018-12-09T06:48:37.355Z,7.70
2018-12-09T06:51:06.333Z,7.60
2018-12-09T06:53:35.075Z,7.60
2018-12-09T06:56:04.217Z,7.60
2018-12-09T06:58:32.912Z,7.60
2018-12-09T07:01:01.834Z,7.60
2018-12-09T07:03:30.532Z,7.60
2018-12-09T07:05:59.228Z,7.60
2018-12-09T07:08:28.489Z,7.60
2018-12-09T07:10:57.198Z,7.50
2018-12-09T07:13:25.927Z,7.50
2018-12-09T07:15:54.613Z,7.50
2018-12-09T07:18:23.276Z,7.50
2018-12-09T07:20:52.725Z,7.50
2018-12-09T07:23:21.447Z,7.50
2018-12-09T07:25:50.228Z,7.50
2018-12-09T07:28:18.933Z,7.50
2018-12-09T07:30:47.735Z,7.50
2018-12-09T07:33:16.429Z,7.50
2018-12-09T07:35:45.205Z,7.50
2018-12-09T07:38:13.980Z,7.50
2018-12-09T07:40:42.670Z,7.50
2018-12-09T07:43:11.336Z,7.50
2018-12-09T07:45:40.055Z,7.50
2018-12-09T07:48:08.781Z,7.50
2018-12-09T07:50:37.631Z,7.50
2018-12-09T07:53:06.568Z,7.50
2018-12-09T07:55:35.227Z,7.50
2018-12-09T07:58:04.005Z,7.60
2018-12-09T08:00:32.964Z,7.60
2018-12-09T08:03:01.647Z,7.60
2018-12-09T08:05:30.331Z,7.60
2018-12-09T08:07:59.071Z,7.60
2018-12-09T08:10:27.770Z,7.60
2018-12-09T08:12:56.474Z,7.50
2018-12-09T08:15:25.148Z,7.50
2018-12-09T08:17:53.892Z,7.50
2018-12-09T08:20:22.609Z,7.50
2018-12-09T08:22:54.382Z,7.50
2018-12-09T08:25:23.109Z,7.50
2018-12-09T08:27:52.613Z,7.40
2018-12-09T08:30:21.349Z,7.40
2018-12-09T08:32:50.070Z,7.50
2018-12-09T08:35:18.804Z,7.40
2018-12-09T08:37:47.520Z,7.50
2018-12-09T08:40:16.260Z,7.50
2018-12-09T08:42:44.952Z,7.50
2018-12-09T08:45:13.624Z,7.50
2018-12-09T08:47:42.324Z,7.50
2018-12-09T08:50:11.112Z,7.50
2018-12-09T08:52:39.878Z,7.60
2018-12-09T08:55:08.551Z,7.50
2018-12-09T08:57:37.240Z,7.60
2018-12-09T09:00:05.948Z,7.50
2018-12-09T09:02:34.628Z,7.50
2018-12-09T09:05:03.405Z,7.50
2018-12-09T09:07:32.105Z,7.50
2018-12-09T09:10:00.822Z,7.50
2018-12-09T09:12:29.514Z,7.50
2018-12-09T09:14:58.262Z,7.40
2018-12-09T09:17:26.990Z,7.40
2018-12-09T09:19:55.729Z,7.50
2018-12-09T09:22:24.403Z,7.50
2018-12-09T09:24:53.060Z,7.50
2018-12-09T09:27:21.810Z,7.60
2018-12-09T09:29:50.507Z,7.80
2018-12-09T09:32:19.216Z,7.80
2018-12-09T09:34:47.928Z,7.80
2018-12-09T09:37:16.618Z,7.80
2018-12-09T09:39:45.308Z,7.80
2018-12-09T09:42:13.972Z,7.80
2018-12-09T09:44:42.736Z,7.80
2018-12-09T09:47:11.501Z,7.80
2018-12-09T09:49:40.207Z,7.80
2018-12-09T09:52:08.876Z,7.80
2018-12-09T09:54:37.546Z,7.80
2018-12-09T09:57:06.265Z,7.80
2018-12-09T09:59:34.931Z,7.80
2018-12-09T10:02:03.645Z,7.70
2018-12-09T10:04:32.319Z,7.70
2018-12-09T10:07:01.029Z,7.80
2018-12-09T10:09:29.765Z,7.80
2018-12-09T10:11:58.460Z,7.90
2018-12-09T10:14:27.152Z,7.90
2018-12-09T10:16:55.967Z,8.10
2018-12-09T10:19:24.668Z,8.10
2018-12-09T10:21:53.387Z,8.10
2018-12-09T10:24:22.121Z,8.10
2018-12-09T10:26:50.887Z,8.10
2018-12-09T10:29:19.640Z,8.10
2018-12-09T10:31:48.351Z,8.10
2018-12-09T10:34:17.028Z,8.20
2018-12-09T10:36:46.320Z,8.30
2018-12-09T10:39:14.990Z,8.30
2018-12-09T10:41:43.661Z,8.30
2018-12-09T10:44:12.365Z,8.30
2018-12-09T10:46:41.031Z,8.30
2018-12-09T10:49:09.739Z,8.30
2018-12-09T10:51:38.433Z,8.30
2018-12-09T10:54:07.116Z,8.40
2018-12-09T10:56:35.830Z,8.30
2018-12-09T10:59:04.520Z,8.30
2018-12-09T11:01:39.569Z,8.30
2018-12-09T11:04:08.268Z,8.30
2018-12-09T11:06:37.323Z,8.40
2018-12-09T11:09:06.899Z,8.40
2018-12-09T11:11:35.568Z,8.50
2018-12-09T11:14:04.293Z,8.40
2018-12-09T11:16:32.963Z,8.30
2018-12-09T11:19:01.712Z,8.40
2018-12-09T11:21:30.967Z,8.40
2018-12-09T11:24:00.081Z,8.40
2018-12-09T11:26:28.743Z,8.40
2018-12-09T11:28:57.428Z,8.30
2018-12-09T11:31:26.175Z,8.30
2018-12-09T11:33:54.843Z,8.30
2018-12-09T11:36:23.728Z,8.30
2018-12-09T11:38:52.424Z,8.30
2018-12-09T11:41:21.123Z,8.30
2018-12-09T11:43:49.826Z,8.30
2018-12-09T11:46:18.520Z,8.40
2018-12-09T11:48:47.229Z,8.40
2018-12-09T11:51:15.969Z,8.50
2018-12-09T11:53:44.690Z,8.50
2018-12-09T11:56:13.389Z,8.50
2018-12-09T11:58:42.126Z,8.50
2018-12-09T12:01:10.842Z,8.50
2018-12-09T12:03:39.554Z,8.50
2018-12-09T12:06:08.239Z,8.50
2018-12-09T12:08:36.940Z,8.50
2018-12-09T12:11:05.693Z,8.40
2018-12-09T12:13:34.397Z,8.40
2018-12-09T12:16:03.057Z,8.30
2018-12-09T12:18:31.722Z,8.30
2018-12-09T12:21:00.433Z,8.40
2018-12-09T12:23:29.101Z,8.40
2018-12-09T12:25:57.829Z,8.40
2018-12-09T12:28:26.691Z,8.50
2018-12-09T12:30:55.394Z,8.40
2018-12-09T12:33:24.126Z,8.40
2018-12-09T12:35:52.816Z,8.40
2018-12-09T12:38:21.535Z,8.50
2018-12-09T12:40:50.248Z,8.40
2018-12-09T12:43:19.041Z,8.40
2018-12-09T12:45:47.741Z,8.40
2018-12-09T12:48:16.469Z,8.40
2018-12-09T12:50:45.264Z,8.40
2018-12-09T12:53:13.988Z,8.50
2018-12-09T12:55:42.689Z,8.50
2018-12-09T12:58:11.388Z,8.50
2018-12-09T13:00:40.179Z,8.50
2018-12-09T13:03:08.875Z,8.50
2018-12-09T13:05:37.605Z,8.50
2018-12-09T13:08:06.280Z,8.50
2018-12-09T13:10:34.995Z,8.50
2018-12-09T13:13:03.712Z,8.40
2018-12-09T13:15:32.454Z,8.40
2018-12-09T13:18:01.148Z,8.40
2018-12-09T13:20:29.854Z,8.30
2018-12-09T13:22:59.695Z,8.20
2018-12-09T13:25:28.375Z,8.20
2018-12-09T13:27:57.099Z,8.20
2018-12-09T13:30:25.825Z,8.20
2018-12-09T13:32:54.497Z,8.20
2018-12-09T13:35:23.164Z,8.20
2018-12-09T13:37:52.240Z,8.20
2018-12-09T13:40:20.928Z,8.20
2018-12-09T13:42:49.729Z,8.20
2018-12-09T13:45:18.399Z,8.30
2018-12-09T13:47:47.103Z,8.20
2018-12-09T13:50:16.011Z,8.20
2018-12-09T13:52:44.794Z,8.30
2018-12-09T13:55:13.491Z,8.20
2018-12-09T13:57:42.360Z,8.30
2018-12-09T14:00:12.844Z,8.30
2018-12-09T14:02:41.496Z,8.30
2018-12-09T14:05:10.216Z,8.30
2018-12-09T14:07:39.156Z,8.30
2018-12-09T14:10:07.822Z,8.20
2018-12-09T14:12:36.554Z,8.20
2018-12-09T14:15:06.177Z,8.20
2018-12-09T14:17:34.840Z,8.20
2018-12-09T14:20:04.351Z,8.20
2018-12-09T14:22:33.050Z,8.20
2018-12-09T14:25:01.743Z,8.20
2018-12-09T14:27:30.678Z,8.20
2018-12-09T14:29:59.382Z,8.10
2018-12-09T14:32:28.073Z,8.10
2018-12-09T14:34:56.740Z,8.20
2018-12-09T14:37:25.729Z,8.10
2018-12-09T14:39:54.544Z,8.10
2018-12-09T14:42:23.248Z,8.10
2018-12-09T14:44:51.993Z,8.10
2018-12-09T14:47:20.693Z,8.10
2018-12-09T14:49:49.435Z,8.10
2018-12-09T14:52:18.155Z,8.10
2018-12-09T14:54:46.879Z,8.10
2018-12-09T14:57:15.569Z,8.00
2018-12-09T14:59:44.219Z,8.00
2018-12-09T15:02:13.026Z,7.90
2018-12-09T15:04:41.742Z,7.90
2018-12-09T15:07:10.480Z,7.80
2018-12-09T15:09:39.185Z,7.80
2018-12-09T15:12:09.152Z,7.90
2018-12-09T15:14:37.886Z,7.90
2018-12-09T15:17:06.560Z,7.80
2018-12-09T15:19:35.248Z,7.80
2018-12-09T15:22:04.037Z,7.70
2018-12-09T15:24:41.209Z,7.70
2018-12-09T15:27:03.456Z,7.60
2018-12-09T15:29:32.186Z,7.60
2018-12-09T15:32:00.867Z,7.60
2018-12-09T15:34:29.585Z,7.60
2018-12-09T15:36:58.300Z,7.60
2018-12-09T15:39:27.063Z,7.60
2018-12-09T15:41:55.761Z,7.60
2018-12-09T15:44:24.449Z,7.60
2018-12-09T15:46:53.253Z,7.70
2018-12-09T15:49:22.030Z,7.70
2018-12-09T15:51:50.840Z,7.80
2018-12-09T15:54:20.020Z,7.80
2018-12-09T15:56:48.777Z,7.80
2018-12-09T15:59:17.476Z,7.90
2018-12-09T16:01:46.152Z,7.90
2018-12-09T16:04:14.821Z,7.90
2018-12-09T16:06:43.509Z,7.90
2018-12-09T16:09:12.213Z,7.90
2018-12-09T16:11:40.962Z,7.90
2018-12-09T16:14:09.628Z,7.90
2018-12-09T16:16:38.341Z,7.80
2018-12-09T16:19:07.052Z,7.80
2018-12-09T16:21:35.738Z,7.90
2018-12-09T16:24:04.541Z,7.90
2018-12-09T16:26:33.248Z,7.90
2018-12-09T16:29:01.970Z,7.80
2018-12-09T16:31:30.679Z,7.80
2018-12-09T16:33:59.355Z,7.90
2018-12-09T16:36:28.080Z,7.80
2018-12-09T16:38:56.794Z,7.80
2018-12-09T16:41:25.480Z,7.80
2018-12-09T16:43:54.600Z,7.80
2018-12-09T16:46:23.336Z,7.80
2018-12-09T16:48:52.048Z,7.80
2018-12-09T16:51:20.760Z,7.80
2018-12-09T16:53:49.493Z,7.80
2018-12-09T16:56:18.213Z,7.80
2018-12-09T16:58:46.929Z,7.80
2018-12-09T17:01:15.602Z,7.80
2018-12-09T17:03:44.294Z,7.90
2018-12-09T17:06:12.981Z,7.90
2018-12-09T17:08:41.738Z,7.90
2018-12-09T17:11:10.453Z,7.90
2018-12-09T17:13:39.168Z,7.80
2018-12-09T17:16:07.864Z,7.80
2018-12-09T17:18:36.549Z,7.80
2018-12-09T17:21:05.221Z,7.80
2018-12-09T17:23:33.945Z,7.80
2018-12-09T17:26:02.649Z,7.80
2018-12-09T17:28:31.333Z,7.80
2018-12-09T17:31:00.115Z,7.80
2018-12-09T17:33:28.808Z,7.80
2018-12-09T17:35:57.506Z,7.80
2018-12-09T17:38:26.263Z,7.80
2018-12-09T17:40:55.011Z,7.80
2018-12-09T17:43:24.461Z,7.70
2018-12-09T17:45:54.309Z,7.70
2018-12-09T17:48:23.012Z,7.70
2018-12-09T17:50:51.801Z,7.60
2018-12-09T17:53:20.513Z,7.60
2018-12-09T17:55:49.284Z,7.60
2018-12-09T17:58:17.971Z,7.60
2018-12-09T18:00:46.776Z,7.50
2018-12-09T18:03:16.648Z,7.50
2018-12-09T18:05:45.392Z,7.50
2018-12-09T18:08:14.119Z,7.50
2018-12-09T18:10:42.818Z,7.50
2018-12-09T18:13:11.695Z,7.50
2018-12-09T18:15:40.448Z,7.50
2018-12-09T18:18:09.174Z,7.50
2018-12-09T18:20:37.884Z,7.50
2018-12-09T18:23:06.587Z,7.50
2018-12-09T18:25:35.424Z,7.50
2018-12-09T18:28:04.157Z,7.50
2018-12-09T18:30:32.867Z,7.50
2018-12-09T18:33:01.560Z,7.50
2018-12-09T18:35:30.262Z,7.50
2018-12-09T18:37:59.023Z,7.50
2018-12-09T18:40:27.744Z,7.50
2018-12-09T18:42:56.448Z,7.50
2018-12-09T18:45:25.186Z,7.50
2018-12-09T18:47:53.922Z,7.50
2018-12-09T18:50:22.630Z,7.50
2018-12-09T18:52:51.339Z,7.50
2018-12-09T18:55:20.005Z,7.50
2018-12-09T18:57:48.708Z,7.60
2018-12-09T19:00:17.395Z,7.50
2018-12-09T19:02:46.076Z,7.60
2018-12-09T19:05:14.883Z,7.60
2018-12-09T19:07:43.637Z,7.60
2018-12-09T19:10:12.313Z,7.60
2018-12-09T19:12:41.073Z,7.60
2018-12-09T19:15:09.737Z,7.50
2018-12-09T19:17:38.468Z,7.60
2018-12-09T19:20:07.407Z,7.60
2018-12-09T19:22:36.256Z,7.60
2018-12-09T19:25:05.768Z,7.60
2018-12-09T19:27:37.748Z,7.60
2018-12-09T19:30:07.057Z,7.60
2018-12-09T19:32:35.778Z,7.60
2018-12-09T19:35:04.567Z,7.60
2018-12-09T19:37:33.324Z,7.70
2018-12-09T19:40:02.011Z,7.70
2018-12-09T19:42:30.715Z,7.60
2018-12-09T19:44:59.546Z,7.70
2018-12-09T19:47:28.292Z,7.60
2018-12-09T19:49:57.694Z,7.60
2018-12-09T19:52:27.152Z,7.60
2018-12-09T19:54:55.969Z,7.70
2018-12-09T19:57:24.855Z,7.60
2018-12-09T19:59:53.667Z,7.60
2018-12-09T20:02:22.449Z,7.60
2018-12-09T20:04:51.297Z,7.70
2018-12-09T20:07:20.045Z,7.60
2018-12-09T20:09:48.770Z,7.60
2018-12-09T20:12:17.465Z,7.60
2018-12-09T20:14:46.351Z,7.60
2018-12-09T20:17:15.081Z,7.60
2018-12-09T20:19:43.910Z,7.60
2018-12-09T20:22:12.691Z,7.60
2018-12-09T20:24:41.403Z,7.50
2018-12-09T20:27:11.317Z,7.50
2018-12-09T20:29:40.244Z,7.40
2018-12-09T20:32:08.931Z,7.40
2018-12-09T20:34:37.654Z,7.50
2018-12-09T20:37:06.419Z,7.50
2018-12-09T20:39:36.133Z,7.50
2018-12-09T20:42:05.799Z,7.50
2018-12-09T20:44:34.609Z,7.50
2018-12-09T20:47:03.316Z,7.50
2018-12-09T20:49:32.287Z,7.50
2018-12-09T20:52:01.156Z,7.50
2018-12-09T20:54:29.931Z,7.50
2018-12-09T20:56:58.632Z,7.50
2018-12-09T20:59:27.572Z,7.50
2018-12-09T21:01:56.983Z,7.40
2018-12-09T21:04:26.092Z,7.50
2018-12-09T21:06:54.803Z,7.50
2018-12-09T21:09:23.539Z,7.50
2018-12-09T21:11:52.256Z,7.50
2018-12-09T21:14:21.965Z,7.40
2018-12-09T21:16:51.060Z,7.40
2018-12-09T21:19:19.790Z,7.40
2018-12-09T21:21:48.692Z,7.40
2018-12-09T21:24:25.587Z,7.30
2018-12-09T21:26:48.258Z,7.30
2018-12-09T21:29:16.974Z,7.30
2018-12-09T21:31:45.719Z,7.30
2018-12-09T21:34:14.450Z,7.30
2018-12-09T21:36:43.181Z,7.30
2018-12-09T21:39:12.485Z,7.30
2018-12-09T21:41:41.224Z,7.30
2018-12-09T21:44:09.894Z,7.30
2018-12-09T21:46:38.595Z,7.30
2018-12-09T21:49:07.325Z,7.30
2018-12-09T21:51:36.003Z,7.30
2018-12-09T21:54:04.701Z,7.30
2018-12-09T21:56:33.412Z,7.30
2018-12-09T21:59:02.134Z,7.30
2018-12-09T22:01:30.894Z,7.30
2018-12-09T22:04:00.010Z,7.30
2018-12-09T22:06:28.712Z,7.30
2018-12-09T22:08:57.381Z,7.20
2018-12-09T22:11:26.095Z,7.20
2018-12-09T22:13:54.801Z,7.20
2018-12-09T22:16:23.488Z,7.20
2018-12-09T22:18:52.205Z,7.20
2018-12-09T22:21:20.934Z,7.20
2018-12-09T22:23:49.735Z,7.20
2018-12-09T22:26:18.523Z,7.20
2018-12-09T22:28:47.263Z,7.20
2018-12-09T22:31:15.968Z,7.20
2018-12-09T22:33:44.659Z,7.20
2018-12-09T22:36:13.477Z,7.20
2018-12-09T22:38:42.165Z,7.20
2018-12-09T22:41:10.847Z,7.20
2018-12-09T22:43:39.536Z,7.20
2018-12-09T22:46:08.296Z,7.20
2018-12-09T22:48:37.064Z,7.10
2018-12-09T22:51:05.809Z,7.10
2018-12-09T22:53:34.750Z,7.10
2018-12-09T22:56:03.605Z,7.10
2018-12-09T22:58:32.417Z,7.10
2018-12-09T23:01:07.281Z,7.10
2018-12-09T23:03:36.007Z,7.10
2018-12-09T23:06:04.681Z,7.10
2018-12-09T23:08:33.465Z,7.00
2018-12-09T23:11:02.210Z,7.00
2018-12-09T23:13:30.943Z,7.00
2018-12-09T23:15:59.599Z,6.90
2018-12-09T23:18:28.296Z,6.90
2018-12-09T23:20:56.955Z,6.90
2018-12-09T23:23:26.148Z,6.80
2018-12-09T23:25:54.843Z,6.80
2018-12-09T23:28:23.536Z,6.80
2018-12-09T23:30:52.224Z,6.80
2018-12-09T23:33:20.924Z,6.70
2018-12-09T23:35:49.604Z,6.70
2018-12-09T23:38:18.311Z,6.60
2018-12-09T23:40:47.032Z,6.60
2018-12-09T23:43:15.720Z,6.50
2018-12-09T23:45:44.533Z,6.50
2018-12-09T23:48:13.225Z,6.60
2018-12-09T23:50:41.879Z,6.60
2018-12-09T23:53:10.584Z,6.50
2018-12-09T23:55:39.340Z,6.50
2018-12-09T23:58:08.048Z,6.50
